sensor_id;sensor_type;location;lat;lon;timestamp;temperature;humidity
46458;DHT22;32155;54.076;12.092;2023-05-20T00:01:38;10.00;99.90
46458;DHT22;32155;54.076;12.092;2023-05-20T00:04:03;10.00;99.90
46458;DHT22;32155;54.076;12.092;2023-05-20T00:06:31;9.90;99.90
46458;DHT22;32155;54.076;12.092;2023-05-20T00:08:58;9.90;99.90
46458;DHT22;32155;54.076;12.092;2023-05-20T00:11:26;9.90;99.90
46458;DHT22;32155;54.076;12.092;2023-05-20T00:13:51;9.90;99.90
46458;DHT22;32155;54.076;12.092;2023-05-20T00:16:17;9.90;99.90
46458;DHT22;32155;54.076;12.092;2023-05-20T00:18:45;9.90;99.90
46458;DHT22;32155;54.076;12.092;2023-05-20T00:24:38;9.90;99.90
46458;DHT22;32155;54.076;12.092;2023-05-20T00:27:03;9.80;99.90
46458;DHT22;32155;54.076;12.092;2023-05-20T00:29:32;9.80;99.90
46458;DHT22;32155;54.076;12.092;2023-05-20T00:31:58;9.80;99.90
46458;DHT22;32155;54.076;12.092;2023-05-20T00:34:26;9.80;99.90
46458;DHT22;32155;54.076;12.092;2023-05-20T00:37:03;9.80;99.90
46458;DHT22;32155;54.076;12.092;2023-05-20T00:39:52;9.90;99.90
46458;DHT22;32155;54.076;12.092;2023-05-20T00:42:40;9.80;99.90
46458;DHT22;32155;54.076;12.092;2023-05-20T00:45:23;9.90;99.90
46458;DHT22;32155;54.076;12.092;2023-05-20T01:12:52;9.80;99.90
46458;DHT22;32155;54.076;12.092;2023-05-20T01:15:20;9.80;99.90
46458;DHT22;32155;54.076;12.092;2023-05-20T01:17:51;9.80;99.90
46458;DHT22;32155;54.076;12.092;2023-05-20T01:20:17;9.70;99.90
46458;DHT22;32155;54.076;12.092;2023-05-20T01:22:51;9.70;99.90
46458;DHT22;32155;54.076;12.092;2023-05-20T01:25:19;9.70;99.90
46458;DHT22;32155;54.076;12.092;2023-05-20T01:27:49;9.60;99.90
46458;DHT22;32155;54.076;12.092;2023-05-20T01:30:15;9.60;99.90
46458;DHT22;32155;54.076;12.092;2023-05-20T01:32:46;9.60;99.90
46458;DHT22;32155;54.076;12.092;2023-05-20T01:50:50;9.50;99.90
46458;DHT22;32155;54.076;12.092;2023-05-20T02:00:56;9.50;99.90
46458;DHT22;32155;54.076;12.092;2023-05-20T02:03:22;9.50;99.90
46458;DHT22;32155;54.076;12.092;2023-05-20T02:05:48;9.40;99.90
46458;DHT22;32155;54.076;12.092;2023-05-20T02:08:15;9.40;99.90
46458;DHT22;32155;54.076;12.092;2023-05-20T02:10:41;9.40;99.90
46458;DHT22;32155;54.076;12.092;2023-05-20T02:13:15;9.40;99.90
46458;DHT22;32155;54.076;12.092;2023-05-20T02:16:05;9.30;99.90
46458;DHT22;32155;54.076;12.092;2023-05-20T02:18:31;9.30;99.90
46458;DHT22;32155;54.076;12.092;2023-05-20T02:21:03;9.30;99.90
46458;DHT22;32155;54.076;12.092;2023-05-20T02:23:30;9.20;99.90
46458;DHT22;32155;54.076;12.092;2023-05-20T02:25:57;9.20;99.90
46458;DHT22;32155;54.076;12.092;2023-05-20T02:28:23;9.20;99.90
46458;DHT22;32155;54.076;12.092;2023-05-20T02:34:08;9.10;99.90
46458;DHT22;32155;54.076;12.092;2023-05-20T02:36:34;9.00;99.90
46458;DHT22;32155;54.076;12.092;2023-05-20T02:38:59;9.00;99.90
46458;DHT22;32155;54.076;12.092;2023-05-20T02:41:25;9.00;99.90
46458;DHT22;32155;54.076;12.092;2023-05-20T02:43:51;9.00;99.90
46458;DHT22;32155;54.076;12.092;2023-05-20T02:46:19;8.90;99.90
46458;DHT22;32155;54.076;12.092;2023-05-20T02:48:46;8.90;99.90
46458;DHT22;32155;54.076;12.092;2023-05-20T02:51:12;8.80;99.90
46458;DHT22;32155;54.076;12.092;2023-05-20T02:53:38;8.80;99.90
46458;DHT22;32155;54.076;12.092;2023-05-20T02:56:03;8.80;99.90
46458;DHT22;32155;54.076;12.092;2023-05-20T02:58:29;8.70;99.90
46458;DHT22;32155;54.076;12.092;2023-05-20T03:00:54;8.80;99.90
46458;DHT22;32155;54.076;12.092;2023-05-20T03:03:22;8.70;99.90
46458;DHT22;32155;54.076;12.092;2023-05-20T03:05:48;8.70;99.90
46458;DHT22;32155;54.076;12.092;2023-05-20T03:08:14;8.70;99.90
46458;DHT22;32155;54.076;12.092;2023-05-20T03:10:39;8.60;99.90
46458;DHT22;32155;54.076;12.092;2023-05-20T03:13:07;8.60;99.90
46458;DHT22;32155;54.076;12.092;2023-05-20T03:15:38;8.60;99.90
46458;DHT22;32155;54.076;12.092;2023-05-20T03:18:06;8.60;99.90
46458;DHT22;32155;54.076;12.092;2023-05-20T03:20:33;8.60;99.90
46458;DHT22;32155;54.076;12.092;2023-05-20T03:23:01;8.60;99.90
46458;DHT22;32155;54.076;12.092;2023-05-20T03:25:27;8.70;99.90
46458;DHT22;32155;54.076;12.092;2023-05-20T03:27:52;8.70;99.90
46458;DHT22;32155;54.076;12.092;2023-05-20T03:30:21;8.70;99.90
46458;DHT22;32155;54.076;12.092;2023-05-20T03:32:47;8.70;99.90
46458;DHT22;32155;54.076;12.092;2023-05-20T03:35:13;8.70;99.90
46458;DHT22;32155;54.076;12.092;2023-05-20T03:37:41;8.80;99.90
46458;DHT22;32155;54.076;12.092;2023-05-20T03:40:07;8.80;99.90
46458;DHT22;32155;54.076;12.092;2023-05-20T03:42:34;8.80;99.90
46458;DHT22;32155;54.076;12.092;2023-05-20T03:45:00;8.80;99.90
46458;DHT22;32155;54.076;12.092;2023-05-20T03:47:26;8.90;99.90
46458;DHT22;32155;54.076;12.092;2023-05-20T03:49:51;8.90;99.90
46458;DHT22;32155;54.076;12.092;2023-05-20T03:52:17;9.00;99.90
46458;DHT22;32155;54.076;12.092;2023-05-20T03:54:42;9.10;99.90
46458;DHT22;32155;54.076;12.092;2023-05-20T03:57:08;9.10;99.90
46458;DHT22;32155;54.076;12.092;2023-05-20T03:59:35;9.10;99.90
46458;DHT22;32155;54.076;12.092;2023-05-20T04:02:01;9.20;99.90
46458;DHT22;32155;54.076;12.092;2023-05-20T04:04:26;9.30;99.90
46458;DHT22;32155;54.076;12.092;2023-05-20T04:06:52;9.30;99.90
46458;DHT22;32155;54.076;12.092;2023-05-20T04:09:23;9.30;99.90
46458;DHT22;32155;54.076;12.092;2023-05-20T04:11:49;9.40;99.90
46458;DHT22;32155;54.076;12.092;2023-05-20T04:14:14;9.50;99.90
46458;DHT22;32155;54.076;12.092;2023-05-20T04:16:43;9.60;99.90
46458;DHT22;32155;54.076;12.092;2023-05-20T04:19:09;9.60;99.90
46458;DHT22;32155;54.076;12.092;2023-05-20T04:21:35;9.60;99.90
46458;DHT22;32155;54.076;12.092;2023-05-20T04:24:00;9.70;99.90
46458;DHT22;32155;54.076;12.092;2023-05-20T04:26:26;9.70;99.90
46458;DHT22;32155;54.076;12.092;2023-05-20T04:28:51;9.80;99.90
46458;DHT22;32155;54.076;12.092;2023-05-20T04:31:17;9.90;99.90
46458;DHT22;32155;54.076;12.092;2023-05-20T04:33:42;10.00;99.90
46458;DHT22;32155;54.076;12.092;2023-05-20T04:36:09;10.10;99.90
46458;DHT22;32155;54.076;12.092;2023-05-20T04:38:36;10.10;99.90
46458;DHT22;32155;54.076;12.092;2023-05-20T04:41:02;10.10;99.90
46458;DHT22;32155;54.076;12.092;2023-05-20T04:43:30;10.20;99.90
46458;DHT22;32155;54.076;12.092;2023-05-20T04:45:56;10.30;99.90
46458;DHT22;32155;54.076;12.092;2023-05-20T04:48:23;10.40;99.90
46458;DHT22;32155;54.076;12.092;2023-05-20T04:50:48;10.50;99.90
46458;DHT22;32155;54.076;12.092;2023-05-20T04:53:17;10.50;99.90
46458;DHT22;32155;54.076;12.092;2023-05-20T04:55:47;10.60;99.90
46458;DHT22;32155;54.076;12.092;2023-05-20T04:58:14;10.80;99.90
46458;DHT22;32155;54.076;12.092;2023-05-20T05:00:41;10.90;99.90
46458;DHT22;32155;54.076;12.092;2023-05-20T05:03:07;10.90;99.90
46458;DHT22;32155;54.076;12.092;2023-05-20T05:05:33;11.10;99.90
46458;DHT22;32155;54.076;12.092;2023-05-20T05:08:00;11.10;99.90
46458;DHT22;32155;54.076;12.092;2023-05-20T05:10:25;11.30;99.90
46458;DHT22;32155;54.076;12.092;2023-05-20T05:12:51;11.40;99.90
46458;DHT22;32155;54.076;12.092;2023-05-20T05:15:16;11.60;99.90
46458;DHT22;32155;54.076;12.092;2023-05-20T05:17:44;11.80;99.90
46458;DHT22;32155;54.076;12.092;2023-05-20T05:20:10;11.90;99.90
46458;DHT22;32155;54.076;12.092;2023-05-20T05:22:35;12.10;99.90
46458;DHT22;32155;54.076;12.092;2023-05-20T05:25:02;12.20;99.90
46458;DHT22;32155;54.076;12.092;2023-05-20T05:27:27;12.30;99.90
46458;DHT22;32155;54.076;12.092;2023-05-20T05:29:53;12.50;99.90
46458;DHT22;32155;54.076;12.092;2023-05-20T05:32:20;12.70;99.90
46458;DHT22;32155;54.076;12.092;2023-05-20T05:34:46;13.00;99.90
46458;DHT22;32155;54.076;12.092;2023-05-20T05:37:14;13.40;99.90
46458;DHT22;32155;54.076;12.092;2023-05-20T05:39:39;13.60;99.90
46458;DHT22;32155;54.076;12.092;2023-05-20T05:42:10;13.70;99.90
46458;DHT22;32155;54.076;12.092;2023-05-20T05:44:35;13.80;99.90
46458;DHT22;32155;54.076;12.092;2023-05-20T05:47:01;14.10;99.90
46458;DHT22;32155;54.076;12.092;2023-05-20T05:49:30;14.30;99.90
46458;DHT22;32155;54.076;12.092;2023-05-20T05:51:55;14.20;99.90
46458;DHT22;32155;54.076;12.092;2023-05-20T05:54:25;14.30;99.90
46458;DHT22;32155;54.076;12.092;2023-05-20T05:56:51;14.60;99.90
46458;DHT22;32155;54.076;12.092;2023-05-20T05:59:17;14.80;99.90
46458;DHT22;32155;54.076;12.092;2023-05-20T06:01:43;14.60;99.90
46458;DHT22;32155;54.076;12.092;2023-05-20T06:04:11;14.80;99.90
46458;DHT22;32155;54.076;12.092;2023-05-20T06:06:37;14.80;99.90
46458;DHT22;32155;54.076;12.092;2023-05-20T06:09:02;14.70;99.90
46458;DHT22;32155;54.076;12.092;2023-05-20T06:11:28;14.80;99.90
46458;DHT22;32155;54.076;12.092;2023-05-20T06:13:56;14.90;99.90
46458;DHT22;32155;54.076;12.092;2023-05-20T06:16:21;15.10;99.90
46458;DHT22;32155;54.076;12.092;2023-05-20T06:18:47;15.30;99.90
46458;DHT22;32155;54.076;12.092;2023-05-20T06:21:15;15.50;99.90
46458;DHT22;32155;54.076;12.092;2023-05-20T06:23:41;15.50;99.90
46458;DHT22;32155;54.076;12.092;2023-05-20T06:26:07;15.50;99.90
46458;DHT22;32155;54.076;12.092;2023-05-20T06:28:37;15.30;99.90
46458;DHT22;32155;54.076;12.092;2023-05-20T06:31:03;15.20;99.90
46458;DHT22;32155;54.076;12.092;2023-05-20T06:33:28;15.30;99.90
46458;DHT22;32155;54.076;12.092;2023-05-20T06:35:54;15.20;99.90
46458;DHT22;32155;54.076;12.092;2023-05-20T06:38:20;15.20;99.90
46458;DHT22;32155;54.076;12.092;2023-05-20T06:40:46;15.10;99.90
46458;DHT22;32155;54.076;12.092;2023-05-20T06:43:13;15.30;99.90
46458;DHT22;32155;54.076;12.092;2023-05-20T06:45:38;15.40;99.90
46458;DHT22;32155;54.076;12.092;2023-05-20T06:48:04;15.40;99.90
46458;DHT22;32155;54.076;12.092;2023-05-20T06:50:30;15.60;99.90
46458;DHT22;32155;54.076;12.092;2023-05-20T06:52:57;15.70;99.90
46458;DHT22;32155;54.076;12.092;2023-05-20T06:55:23;15.80;99.90
46458;DHT22;32155;54.076;12.092;2023-05-20T06:57:48;15.70;99.90
46458;DHT22;32155;54.076;12.092;2023-05-20T07:00:14;15.90;99.90
46458;DHT22;32155;54.076;12.092;2023-05-20T07:02:40;16.20;99.90
46458;DHT22;32155;54.076;12.092;2023-05-20T07:05:06;16.40;99.90
46458;DHT22;32155;54.076;12.092;2023-05-20T07:07:34;16.80;99.90
46458;DHT22;32155;54.076;12.092;2023-05-20T07:09:59;17.60;99.90
46458;DHT22;32155;54.076;12.092;2023-05-20T07:12:30;18.50;99.90
46458;DHT22;32155;54.076;12.092;2023-05-20T07:14:55;19.00;99.90
46458;DHT22;32155;54.076;12.092;2023-05-20T07:17:23;19.50;99.90
46458;DHT22;32155;54.076;12.092;2023-05-20T07:19:49;19.80;99.90
46458;DHT22;32155;54.076;12.092;2023-05-20T07:22:15;20.00;99.90
46458;DHT22;32155;54.076;12.092;2023-05-20T07:24:40;20.10;99.90
46458;DHT22;32155;54.076;12.092;2023-05-20T07:27:06;20.50;99.90
46458;DHT22;32155;54.076;12.092;2023-05-20T07:29:36;20.60;99.90
46458;DHT22;32155;54.076;12.092;2023-05-20T07:32:02;19.80;99.90
46458;DHT22;32155;54.076;12.092;2023-05-20T07:34:28;20.10;99.90
46458;DHT22;32155;54.076;12.092;2023-05-20T07:36:53;20.00;99.90
46458;DHT22;32155;54.076;12.092;2023-05-20T07:39:19;20.40;99.90
46458;DHT22;32155;54.076;12.092;2023-05-20T07:41:45;21.10;99.90
46458;DHT22;32155;54.076;12.092;2023-05-20T07:44:10;20.80;99.90
46458;DHT22;32155;54.076;12.092;2023-05-20T07:46:38;20.10;99.90
46458;DHT22;32155;54.076;12.092;2023-05-20T07:49:06;20.40;99.90
46458;DHT22;32155;54.076;12.092;2023-05-20T07:51:34;20.50;99.90
46458;DHT22;32155;54.076;12.092;2023-05-20T07:54:00;20.00;99.90
46458;DHT22;32155;54.076;12.092;2023-05-20T07:56:26;20.30;99.90
46458;DHT22;32155;54.076;12.092;2023-05-20T07:58:58;20.00;99.90
46458;DHT22;32155;54.076;12.092;2023-05-20T08:01:24;20.00;99.90
46458;DHT22;32155;54.076;12.092;2023-05-20T08:03:50;20.30;99.90
46458;DHT22;32155;54.076;12.092;2023-05-20T08:06:15;21.20;99.90
46458;DHT22;32155;54.076;12.092;2023-05-20T08:08:41;21.60;99.90
46458;DHT22;32155;54.076;12.092;2023-05-20T08:11:07;21.60;99.90
46458;DHT22;32155;54.076;12.092;2023-05-20T08:13:33;21.80;99.90
46458;DHT22;32155;54.076;12.092;2023-05-20T08:15:58;21.60;99.90
46458;DHT22;32155;54.076;12.092;2023-05-20T08:18:24;21.30;99.90
46458;DHT22;32155;54.076;12.092;2023-05-20T08:20:51;20.20;99.90
46458;DHT22;32155;54.076;12.092;2023-05-20T08:23:17;20.30;99.90
46458;DHT22;32155;54.076;12.092;2023-05-20T08:25:43;20.20;99.90
46458;DHT22;32155;54.076;12.092;2023-05-20T08:28:11;20.50;99.90
46458;DHT22;32155;54.076;12.092;2023-05-20T08:30:36;20.60;99.90
46458;DHT22;32155;54.076;12.092;2023-05-20T08:33:02;21.00;99.90
46458;DHT22;32155;54.076;12.092;2023-05-20T08:35:27;21.20;99.90
46458;DHT22;32155;54.076;12.092;2023-05-20T08:37:55;20.90;99.90
46458;DHT22;32155;54.076;12.092;2023-05-20T08:40:21;21.00;99.90
46458;DHT22;32155;54.076;12.092;2023-05-20T08:42:47;20.70;99.90
46458;DHT22;32155;54.076;12.092;2023-05-20T08:45:17;20.20;99.90
46458;DHT22;32155;54.076;12.092;2023-05-20T08:47:43;20.00;99.90
46458;DHT22;32155;54.076;12.092;2023-05-20T08:50:09;20.00;99.90
46458;DHT22;32155;54.076;12.092;2023-05-20T08:52:36;20.30;99.90
46458;DHT22;32155;54.076;12.092;2023-05-20T08:55:05;22.10;99.90
46458;DHT22;32155;54.076;12.092;2023-05-20T08:57:34;21.60;99.90
46458;DHT22;32155;54.076;12.092;2023-05-20T09:00:01;20.80;99.90
46458;DHT22;32155;54.076;12.092;2023-05-20T09:02:36;20.50;99.90
46458;DHT22;32155;54.076;12.092;2023-05-20T09:05:03;20.20;99.90
46458;DHT22;32155;54.076;12.092;2023-05-20T09:07:29;19.70;99.90
46458;DHT22;32155;54.076;12.092;2023-05-20T09:09:55;19.50;99.90
46458;DHT22;32155;54.076;12.092;2023-05-20T09:12:21;19.60;99.90
46458;DHT22;32155;54.076;12.092;2023-05-20T09:14:46;19.20;99.90
46458;DHT22;32155;54.076;12.092;2023-05-20T09:17:12;19.80;99.90
46458;DHT22;32155;54.076;12.092;2023-05-20T09:19:38;20.90;99.90
46458;DHT22;32155;54.076;12.092;2023-05-20T09:22:06;21.20;99.90
46458;DHT22;32155;54.076;12.092;2023-05-20T09:24:31;20.60;99.90
46458;DHT22;32155;54.076;12.092;2023-05-20T09:26:57;19.60;99.90
46458;DHT22;32155;54.076;12.092;2023-05-20T09:29:23;19.40;99.90
46458;DHT22;32155;54.076;12.092;2023-05-20T09:31:48;19.00;99.90
46458;DHT22;32155;54.076;12.092;2023-05-20T09:34:16;18.50;99.90
46458;DHT22;32155;54.076;12.092;2023-05-20T09:36:42;18.40;99.90
46458;DHT22;32155;54.076;12.092;2023-05-20T09:39:15;18.20;99.90
46458;DHT22;32155;54.076;12.092;2023-05-20T09:41:51;18.10;99.90
46458;DHT22;32155;54.076;12.092;2023-05-20T09:44:19;18.10;99.90
46458;DHT22;32155;54.076;12.092;2023-05-20T09:46:45;18.40;99.90
46458;DHT22;32155;54.076;12.092;2023-05-20T09:49:12;18.80;99.90
46458;DHT22;32155;54.076;12.092;2023-05-20T09:51:39;18.60;99.90
46458;DHT22;32155;54.076;12.092;2023-05-20T09:54:05;18.50;99.90
46458;DHT22;32155;54.076;12.092;2023-05-20T09:56:33;18.00;99.90
46458;DHT22;32155;54.076;12.092;2023-05-20T09:58:58;18.10;99.90
46458;DHT22;32155;54.076;12.092;2023-05-20T10:01:25;18.30;99.90
46458;DHT22;32155;54.076;12.092;2023-05-20T10:03:51;18.30;99.90
46458;DHT22;32155;54.076;12.092;2023-05-20T10:11:47;18.80;99.90
46458;DHT22;32155;54.076;12.092;2023-05-20T10:17:09;18.80;99.90
46458;DHT22;32155;54.076;12.092;2023-05-20T10:19:37;18.40;99.90
46458;DHT22;32155;54.076;12.092;2023-05-20T10:22:09;17.90;99.90
46458;DHT22;32155;54.076;12.092;2023-05-20T10:27:03;17.60;99.90
46458;DHT22;32155;54.076;12.092;2023-05-20T10:29:29;17.70;99.90
46458;DHT22;32155;54.076;12.092;2023-05-20T10:31:54;17.60;99.90
46458;DHT22;32155;54.076;12.092;2023-05-20T10:34:23;17.70;99.90
46458;DHT22;32155;54.076;12.092;2023-05-20T10:39:30;17.50;99.90
46458;DHT22;32155;54.076;12.092;2023-05-20T10:42:07;17.30;99.90
46458;DHT22;32155;54.076;12.092;2023-05-20T10:47:08;17.50;99.90
46458;DHT22;32155;54.076;12.092;2023-05-20T10:49:33;17.80;99.90
46458;DHT22;32155;54.076;12.092;2023-05-20T10:52:00;18.00;99.90
46458;DHT22;32155;54.076;12.092;2023-05-20T10:54:28;18.10;99.90
46458;DHT22;32155;54.076;12.092;2023-05-20T10:56:59;18.10;99.90
46458;DHT22;32155;54.076;12.092;2023-05-20T10:59:25;18.60;99.90
46458;DHT22;32155;54.076;12.092;2023-05-20T11:01:50;19.10;99.90
46458;DHT22;32155;54.076;12.092;2023-05-20T11:04:16;19.60;99.90
46458;DHT22;32155;54.076;12.092;2023-05-20T11:06:50;19.90;99.90
46458;DHT22;32155;54.076;12.092;2023-05-20T11:09:17;19.30;99.90
46458;DHT22;32155;54.076;12.092;2023-05-20T11:11:43;19.40;99.90
46458;DHT22;32155;54.076;12.092;2023-05-20T11:14:09;19.20;99.90
46458;DHT22;32155;54.076;12.092;2023-05-20T11:16:38;19.20;99.90
46458;DHT22;32155;54.076;12.092;2023-05-20T11:19:05;19.20;99.90
46458;DHT22;32155;54.076;12.092;2023-05-20T11:21:31;18.90;99.90
46458;DHT22;32155;54.076;12.092;2023-05-20T11:23:56;19.30;99.90
46458;DHT22;32155;54.076;12.092;2023-05-20T11:26:22;19.50;99.90
46458;DHT22;32155;54.076;12.092;2023-05-20T11:28:50;19.70;99.90
46458;DHT22;32155;54.076;12.092;2023-05-20T11:31:17;19.70;99.90
46458;DHT22;32155;54.076;12.092;2023-05-20T11:33:42;19.30;99.90
46458;DHT22;32155;54.076;12.092;2023-05-20T11:36:11;19.10;99.90
46458;DHT22;32155;54.076;12.092;2023-05-20T11:38:39;19.10;99.90
46458;DHT22;32155;54.076;12.092;2023-05-20T11:41:05;19.20;99.90
46458;DHT22;32155;54.076;12.092;2023-05-20T11:43:30;19.20;99.90
46458;DHT22;32155;54.076;12.092;2023-05-20T11:45:57;19.10;99.90
46458;DHT22;32155;54.076;12.092;2023-05-20T11:48:24;18.60;99.90
46458;DHT22;32155;54.076;12.092;2023-05-20T11:50:49;18.30;99.90
46458;DHT22;32155;54.076;12.092;2023-05-20T11:53:17;18.30;99.90
46458;DHT22;32155;54.076;12.092;2023-05-20T11:55:53;18.50;99.90
46458;DHT22;32155;54.076;12.092;2023-05-20T11:58:20;18.50;99.90
46458;DHT22;32155;54.076;12.092;2023-05-20T12:00:46;18.10;99.90
46458;DHT22;32155;54.076;12.092;2023-05-20T12:03:14;18.40;99.90
46458;DHT22;32155;54.076;12.092;2023-05-20T12:05:42;18.70;99.90
46458;DHT22;32155;54.076;12.092;2023-05-20T12:08:11;18.70;99.90
46458;DHT22;32155;54.076;12.092;2023-05-20T12:10:37;18.80;99.90
46458;DHT22;32155;54.076;12.092;2023-05-20T12:13:02;18.90;99.90
46458;DHT22;32155;54.076;12.092;2023-05-20T12:15:28;19.10;99.90
46458;DHT22;32155;54.076;12.092;2023-05-20T12:17:56;18.80;99.90
46458;DHT22;32155;54.076;12.092;2023-05-20T12:20:22;18.70;99.90
46458;DHT22;32155;54.076;12.092;2023-05-20T12:22:48;18.50;99.90
46458;DHT22;32155;54.076;12.092;2023-05-20T12:25:15;18.20;99.90
46458;DHT22;32155;54.076;12.092;2023-05-20T12:27:44;18.30;99.90
46458;DHT22;32155;54.076;12.092;2023-05-20T12:30:16;18.10;99.90
46458;DHT22;32155;54.076;12.092;2023-05-20T12:32:42;18.30;99.90
46458;DHT22;32155;54.076;12.092;2023-05-20T12:35:08;18.30;99.90
46458;DHT22;32155;54.076;12.092;2023-05-20T12:37:37;18.60;99.90
46458;DHT22;32155;54.076;12.092;2023-05-20T12:40:06;19.30;99.90
46458;DHT22;32155;54.076;12.092;2023-05-20T12:42:35;19.40;99.90
46458;DHT22;32155;54.076;12.092;2023-05-20T12:45:01;19.30;99.90
46458;DHT22;32155;54.076;12.092;2023-05-20T12:47:27;19.50;99.90
46458;DHT22;32155;54.076;12.092;2023-05-20T12:49:53;19.60;99.90
46458;DHT22;32155;54.076;12.092;2023-05-20T12:52:18;19.50;99.90
46458;DHT22;32155;54.076;12.092;2023-05-20T12:54:46;19.70;99.90
46458;DHT22;32155;54.076;12.092;2023-05-20T12:57:12;19.60;99.90
46458;DHT22;32155;54.076;12.092;2023-05-20T12:59:40;19.70;99.90
46458;DHT22;32155;54.076;12.092;2023-05-20T13:02:06;19.50;99.90
46458;DHT22;32155;54.076;12.092;2023-05-20T13:04:34;19.40;99.90
46458;DHT22;32155;54.076;12.092;2023-05-20T13:07:02;19.50;99.90
46458;DHT22;32155;54.076;12.092;2023-05-20T13:09:28;19.60;99.90
46458;DHT22;32155;54.076;12.092;2023-05-20T13:11:54;19.70;99.90
46458;DHT22;32155;54.076;12.092;2023-05-20T13:14:19;19.90;99.90
46458;DHT22;32155;54.076;12.092;2023-05-20T13:16:46;20.10;99.90
46458;DHT22;32155;54.076;12.092;2023-05-20T13:19:11;20.30;99.90
46458;DHT22;32155;54.076;12.092;2023-05-20T13:21:39;20.20;99.90
46458;DHT22;32155;54.076;12.092;2023-05-20T13:24:05;20.20;99.90
46458;DHT22;32155;54.076;12.092;2023-05-20T13:26:30;20.00;99.90
46458;DHT22;32155;54.076;12.092;2023-05-20T13:28:56;20.20;99.90
46458;DHT22;32155;54.076;12.092;2023-05-20T13:31:21;20.60;99.90
46458;DHT22;32155;54.076;12.092;2023-05-20T13:33:47;20.60;99.90
46458;DHT22;32155;54.076;12.092;2023-05-20T13:36:17;20.80;99.90
46458;DHT22;32155;54.076;12.092;2023-05-20T13:38:42;21.00;99.90
46458;DHT22;32155;54.076;12.092;2023-05-20T13:41:10;21.70;99.90
46458;DHT22;32155;54.076;12.092;2023-05-20T13:43:36;21.80;99.90
46458;DHT22;32155;54.076;12.092;2023-05-20T13:46:06;22.20;99.90
46458;DHT22;32155;54.076;12.092;2023-05-20T13:48:32;21.90;99.90
46458;DHT22;32155;54.076;12.092;2023-05-20T13:50:57;21.90;99.90
46458;DHT22;32155;54.076;12.092;2023-05-20T13:53:23;21.90;99.90
46458;DHT22;32155;54.076;12.092;2023-05-20T13:55:48;22.00;99.90
46458;DHT22;32155;54.076;12.092;2023-05-20T13:58:14;21.90;99.90
46458;DHT22;32155;54.076;12.092;2023-05-20T14:00:42;22.10;99.90
46458;DHT22;32155;54.076;12.092;2023-05-20T14:03:08;21.80;99.90
46458;DHT22;32155;54.076;12.092;2023-05-20T14:05:34;21.00;99.90
46458;DHT22;32155;54.076;12.092;2023-05-20T14:08:00;20.60;99.90
46458;DHT22;32155;54.076;12.092;2023-05-20T14:10:26;20.30;99.90
46458;DHT22;32155;54.076;12.092;2023-05-20T14:12:53;19.90;99.90
46458;DHT22;32155;54.076;12.092;2023-05-20T14:15:21;20.10;99.90
46458;DHT22;32155;54.076;12.092;2023-05-20T14:17:48;20.70;99.90
46458;DHT22;32155;54.076;12.092;2023-05-20T14:20:17;21.20;99.90
46458;DHT22;32155;54.076;12.092;2023-05-20T14:22:42;21.00;99.90
46458;DHT22;32155;54.076;12.092;2023-05-20T14:25:10;21.10;99.90
46458;DHT22;32155;54.076;12.092;2023-05-20T14:27:35;21.10;99.90
46458;DHT22;32155;54.076;12.092;2023-05-20T14:30:03;20.90;99.90
46458;DHT22;32155;54.076;12.092;2023-05-20T14:32:32;20.60;99.90
46458;DHT22;32155;54.076;12.092;2023-05-20T14:34:57;20.60;99.90
46458;DHT22;32155;54.076;12.092;2023-05-20T14:37:24;20.60;99.90
46458;DHT22;32155;54.076;12.092;2023-05-20T14:39:52;20.40;99.90
46458;DHT22;32155;54.076;12.092;2023-05-20T14:42:18;20.40;99.90
46458;DHT22;32155;54.076;12.092;2023-05-20T14:44:43;20.30;99.90
46458;DHT22;32155;54.076;12.092;2023-05-20T14:47:12;20.30;99.90
46458;DHT22;32155;54.076;12.092;2023-05-20T14:49:41;20.50;99.90
46458;DHT22;32155;54.076;12.092;2023-05-20T14:52:06;20.20;99.90
46458;DHT22;32155;54.076;12.092;2023-05-20T14:54:32;20.40;99.90
46458;DHT22;32155;54.076;12.092;2023-05-20T14:57:00;20.20;99.90
46458;DHT22;32155;54.076;12.092;2023-05-20T14:59:26;20.10;99.90
46458;DHT22;32155;54.076;12.092;2023-05-20T15:01:51;19.90;99.90
46458;DHT22;32155;54.076;12.092;2023-05-20T15:04:17;19.80;99.90
46458;DHT22;32155;54.076;12.092;2023-05-20T15:06:45;19.60;99.90
46458;DHT22;32155;54.076;12.092;2023-05-20T15:09:10;19.50;99.90
46458;DHT22;32155;54.076;12.092;2023-05-20T15:11:36;19.40;99.90
46458;DHT22;32155;54.076;12.092;2023-05-20T15:14:01;18.80;99.90
46458;DHT22;32155;54.076;12.092;2023-05-20T15:16:27;18.90;99.90
46458;DHT22;32155;54.076;12.092;2023-05-20T15:18:52;19.20;99.90
46458;DHT22;32155;54.076;12.092;2023-05-20T15:21:18;19.30;99.90
46458;DHT22;32155;54.076;12.092;2023-05-20T15:23:43;19.10;99.90
46458;DHT22;32155;54.076;12.092;2023-05-20T15:26:09;18.90;99.90
46458;DHT22;32155;54.076;12.092;2023-05-20T15:28:37;19.10;99.90
46458;DHT22;32155;54.076;12.092;2023-05-20T15:31:06;19.20;99.90
46458;DHT22;32155;54.076;12.092;2023-05-20T15:33:31;18.90;99.90
46458;DHT22;32155;54.076;12.092;2023-05-20T15:35:57;18.80;99.90
46458;DHT22;32155;54.076;12.092;2023-05-20T15:38:23;18.90;99.90
46458;DHT22;32155;54.076;12.092;2023-05-20T15:40:51;19.00;99.90
46458;DHT22;32155;54.076;12.092;2023-05-20T15:43:17;19.00;99.90
46458;DHT22;32155;54.076;12.092;2023-05-20T15:45:45;18.80;99.90
46458;DHT22;32155;54.076;12.092;2023-05-20T15:48:12;18.70;99.90
46458;DHT22;32155;54.076;12.092;2023-05-20T15:50:38;18.80;99.90
46458;DHT22;32155;54.076;12.092;2023-05-20T15:53:04;18.60;99.90
46458;DHT22;32155;54.076;12.092;2023-05-20T15:55:32;18.60;99.90
46458;DHT22;32155;54.076;12.092;2023-05-20T15:58:01;18.70;99.90
46458;DHT22;32155;54.076;12.092;2023-05-20T16:00:26;18.60;99.90
46458;DHT22;32155;54.076;12.092;2023-05-20T16:02:52;18.40;99.90
46458;DHT22;32155;54.076;12.092;2023-05-20T16:05:20;18.70;99.90
46458;DHT22;32155;54.076;12.092;2023-05-20T16:07:53;18.90;99.90
46458;DHT22;32155;54.076;12.092;2023-05-20T16:10:22;18.70;99.90
46458;DHT22;32155;54.076;12.092;2023-05-20T16:12:48;18.50;99.90
46458;DHT22;32155;54.076;12.092;2023-05-20T16:15:15;18.50;99.90
46458;DHT22;32155;54.076;12.092;2023-05-20T16:17:41;18.20;99.90
46458;DHT22;32155;54.076;12.092;2023-05-20T16:20:07;18.30;99.90
46458;DHT22;32155;54.076;12.092;2023-05-20T16:22:33;18.30;99.90
46458;DHT22;32155;54.076;12.092;2023-05-20T16:24:59;18.10;99.90
46458;DHT22;32155;54.076;12.092;2023-05-20T16:27:25;18.00;99.90
46458;DHT22;32155;54.076;12.092;2023-05-20T16:29:50;17.90;99.90